Fabian Garcia SC Data

Date Time Air Temperature Relative Humidity Wind Speed Wind Dir. Rain Solar Radiation Soil Temperature
2m 2m 3m 3m 10cm
US/Mountain F % MPH deg in MJ/m^2 F
max min avg max min avg max avg avg max min avg
2019-12-14 01:00:00 42.2 40.3 41.2 76.7 70.7 73.9 2.2 0.3 173.2 0.00 0.0000485 47.3 46.9 47.1
2019-12-14 02:00:00 40.8 39.4 40.3 77.8 75.3 76.1 1.9 0.1 167.4 0.00 0.0000000 47.0 46.6 46.8
2019-12-14 03:00:00 41.0 39.3 40.0 77.8 72.5 75.8 4.4 1.2 185.0 0.00 0.0000000 46.6 46.3 46.5
2019-12-14 04:00:00 39.8 38.5 39.0 79.4 75.4 77.7 4.4 1.1 172.4 0.00 0.0000000 46.3 46.0 46.2
2019-12-14 05:00:00 39.9 37.7 38.8 83.2 75.1 79.1 3.5 1.1 160.3 0.00 0.0000000 46.1 45.8 45.9
2019-12-14 06:00:00 37.9 37.0 37.6 84.2 81.9 82.9 3.0 0.7 164.3 0.00 0.0000000 45.8 45.6 45.7
2019-12-14 07:00:00 37.5 35.5 36.4 86.2 81.9 84.1 2.4 0.3 177.1 0.00 0.0027305 45.6 45.3 45.4
2019-12-14 08:00:00 41.8 35.7 38.5 86.9 74.9 81.2 4.6 0.9 230.0 0.00 0.2057276 45.3 45.1 45.2
2019-12-14 09:00:00 52.0 41.8 47.2 74.9 53.9 62.1 4.0 1.7 144.6 0.00 0.8699439 45.1 45.0 45.0
2019-12-14 10:00:00 59.2 52.0 55.9 54.1 39.1 47.0 10.8 2.9 164.5 0.00 1.4271360 45.2 45.0 45.1
2019-12-14 11:00:00 64.0 59.1 61.3 40.2 34.2 37.2 12.2 4.8 218.0 0.00 1.8340780 45.8 45.2 45.4
2019-12-14 12:00:00 65.5 63.0 64.7 36.3 30.6 32.7 16.9 7.5 229.1 0.00 2.0465020 46.7 45.8 46.2
2019-12-14 13:00:00 66.7 65.1 66.0 32.0 29.5 30.5 20.1 11.1 250.0 0.00 2.0582250 47.5 46.7 47.1
2019-12-14 14:00:00 68.1 66.2 67.3 30.0 26.6 28.2 20.6 11.1 249.6 0.00 1.8598690 48.2 47.5 47.9
2019-12-14 15:00:00 68.5 67.6 68.0 27.4 24.5 25.6 20.8 11.9 252.9 0.00 1.6255720 48.8 48.2 48.5
2019-12-14 16:00:00 68.5 67.1 67.8 28.0 25.3 26.6 19.4 11.3 257.3 0.00 1.1122390 49.3 48.8 49.0
2019-12-14 17:00:00 67.6 63.7 66.0 32.3 27.4 29.4 13.7 5.6 262.2 0.00 0.2656071 49.5 49.3 49.4
2019-12-14 18:00:00 63.8 57.6 61.3 41.5 32.0 35.5 9.4 1.3 284.5 0.00 0.0038962 49.5 49.4 49.5
2019-12-14 19:00:00 60.7 56.9 58.4 43.9 36.0 40.6 6.2 1.7 140.8 0.00 0.0000950 49.4 49.1 49.3
2019-12-14 20:00:00 56.9 50.4 53.0 55.8 43.9 50.9 1.7 0.2 213.1 0.00 0.0000627 49.2 48.8 49.0
2019-12-14 21:00:00 50.8 49.0 50.0 59.7 54.8 57.3 3.5 0.1 163.0 0.00 0.0001617 48.8 48.5 48.7
2019-12-14 22:00:00 49.6 47.0 48.2 65.7 59.2 62.0 4.6 1.0 180.3 0.00 0.0000000 48.5 48.1 48.3
2019-12-14 23:00:00 47.2 45.3 46.2 70.4 65.3 67.7 3.7 0.9 195.5 0.00 0.0000020 48.1 47.8 48.0
2019-12-15 00:00:00 45.8 44.7 45.3 71.3 67.7 69.4 3.7 1.2 155.5 0.00 0.0000061 47.8 47.5 47.7

Data is courtesy of the NM Climate Center. DO NOT USE IN LEGAL PROCEEDINGS.